首页
METAR-TAF:

METAR-TAF

机场 :

Wellsville Municipal Airport (Tarantine Field)

Wellsville, 紐約州, 美国

纬度: 42-06-27N, 经度: 077-59-04W, 海拔: 647米

当前天气观测

该预报发布于20分钟前的05:07 UTC
风速8节,风向西转西南
温度 -3°C
湿度 93%
气压 1012 hPa
能見度: 4.8公里
散云层高于1500英尺
多云层高于2700英尺
阴天层高于3700英尺
小雪, 轻雾

METAR: KELZ 190507Z AUTO 25008KT 3SM -SN BR SCT015 BKN027 OVC037 M03/M04 A2987 RMK AO2 P0000 T10331044 $

时间: 00:27 (05:27 UTC)


TAF: 丢失

超过4000个机场的气象观测和天气预报(METAR&TAF报告)。

可查询的气象台以黄色和红色小点在地图上表示。

将鼠标移到小点上方,可查看气象台名称。

然后点击查看天气观测和预报。

如需切换地图:点击带黑十字的绿色按钮放大地图;点击带横线的绿色按钮缩小地图;或者点击绿色箭头查看邻近地区的地图。


METAR-TAF: